sensor_id;sensor_type;location;lat;lon;timestamp;P1;durP1;ratioP1;P2;durP2;ratioP2
72087;SDS011;59961;50.232;8.616;2023-07-29T00:00:35;8.00;;;4.67;;
72087;SDS011;59961;50.232;8.616;2023-07-29T00:03:00;9.73;;;4.87;;
72087;SDS011;59961;50.232;8.616;2023-07-29T00:05:25;8.27;;;4.60;;
72087;SDS011;59961;50.232;8.616;2023-07-29T00:07:51;8.65;;;4.90;;
72087;SDS011;59961;50.232;8.616;2023-07-29T00:10:16;9.77;;;4.93;;
72087;SDS011;59961;50.232;8.616;2023-07-29T00:12:42;7.70;;;4.60;;
72087;SDS011;59961;50.232;8.616;2023-07-29T00:15:07;9.27;;;5.27;;
72087;SDS011;59961;50.232;8.616;2023-07-29T00:17:32;8.63;;;5.17;;
72087;SDS011;59961;50.232;8.616;2023-07-29T00:19:58;8.63;;;4.88;;
72087;SDS011;59961;50.232;8.616;2023-07-29T00:22:23;10.45;;;4.70;;
72087;SDS011;59961;50.232;8.616;2023-07-29T00:24:51;7.53;;;4.87;;
72087;SDS011;59961;50.232;8.616;2023-07-29T00:27:18;10.90;;;5.20;;
72087;SDS011;59961;50.232;8.616;2023-07-29T00:29:43;8.27;;;4.80;;
72087;SDS011;59961;50.232;8.616;2023-07-29T00:32:08;8.65;;;4.57;;
72087;SDS011;59961;50.232;8.616;2023-07-29T00:34:33;8.02;;;4.45;;
72087;SDS011;59961;50.232;8.616;2023-07-29T00:36:59;6.00;;;3.65;;
72087;SDS011;59961;50.232;8.616;2023-07-29T00:39:24;6.87;;;4.27;;
72087;SDS011;59961;50.232;8.616;2023-07-29T00:41:49;9.10;;;4.53;;
72087;SDS011;59961;50.232;8.616;2023-07-29T00:44:14;7.67;;;4.87;;
72087;SDS011;59961;50.232;8.616;2023-07-29T00:46:40;9.70;;;5.50;;
72087;SDS011;59961;50.232;8.616;2023-07-29T00:49:07;10.60;;;6.07;;
72087;SDS011;59961;50.232;8.616;2023-07-29T00:51:32;9.73;;;5.63;;
72087;SDS011;59961;50.232;8.616;2023-07-29T00:53:57;14.83;;;6.43;;
72087;SDS011;59961;50.232;8.616;2023-07-29T00:56:22;11.40;;;7.17;;
72087;SDS011;59961;50.232;8.616;2023-07-29T00:58:47;13.27;;;7.97;;
72087;SDS011;59961;50.232;8.616;2023-07-29T01:01:13;11.73;;;6.63;;
72087;SDS011;59961;50.232;8.616;2023-07-29T01:03:38;11.43;;;6.70;;
72087;SDS011;59961;50.232;8.616;2023-07-29T01:11:36;16.27;;;8.00;;
72087;SDS011;59961;50.232;8.616;2023-07-29T01:16:39;12.75;;;7.13;;
72087;SDS011;59961;50.232;8.616;2023-07-29T01:19:06;12.95;;;8.15;;
72087;SDS011;59961;50.232;8.616;2023-07-29T01:21:36;14.03;;;8.80;;
72087;SDS011;59961;50.232;8.616;2023-07-29T01:24:02;14.07;;;7.80;;
72087;SDS011;59961;50.232;8.616;2023-07-29T01:26:27;12.07;;;7.40;;
72087;SDS011;59961;50.232;8.616;2023-07-29T01:28:54;11.93;;;7.70;;
72087;SDS011;59961;50.232;8.616;2023-07-29T01:31:25;11.20;;;6.83;;
72087;SDS011;59961;50.232;8.616;2023-07-29T01:34:16;11.57;;;7.38;;
72087;SDS011;59961;50.232;8.616;2023-07-29T01:36:37;10.40;;;6.35;;
72087;SDS011;59961;50.232;8.616;2023-07-29T01:39:06;10.43;;;6.87;;
72087;SDS011;59961;50.232;8.616;2023-07-29T01:41:33;12.60;;;6.03;;
72087;SDS011;59961;50.232;8.616;2023-07-29T01:43:59;11.27;;;6.50;;
72087;SDS011;59961;50.232;8.616;2023-07-29T01:46:25;11.80;;;6.40;;
72087;SDS011;59961;50.232;8.616;2023-07-29T01:48:50;10.73;;;6.37;;
72087;SDS011;59961;50.232;8.616;2023-07-29T01:51:15;11.23;;;5.93;;
72087;SDS011;59961;50.232;8.616;2023-07-29T01:53:41;10.37;;;5.73;;
72087;SDS011;59961;50.232;8.616;2023-07-29T01:56:06;10.30;;;5.50;;
72087;SDS011;59961;50.232;8.616;2023-07-29T01:58:31;10.40;;;5.80;;
72087;SDS011;59961;50.232;8.616;2023-07-29T02:00:56;9.80;;;5.90;;
72087;SDS011;59961;50.232;8.616;2023-07-29T02:03:22;9.00;;;5.95;;
72087;SDS011;59961;50.232;8.616;2023-07-29T02:05:47;9.50;;;5.87;;
72087;SDS011;59961;50.232;8.616;2023-07-29T02:08:12;11.23;;;6.43;;
72087;SDS011;59961;50.232;8.616;2023-07-29T02:10:37;12.40;;;6.63;;
72087;SDS011;59961;50.232;8.616;2023-07-29T02:13:03;12.18;;;7.70;;
72087;SDS011;59961;50.232;8.616;2023-07-29T02:15:28;12.57;;;7.22;;
72087;SDS011;59961;50.232;8.616;2023-07-29T02:17:53;13.63;;;7.60;;
72087;SDS011;59961;50.232;8.616;2023-07-29T02:20:18;14.27;;;8.52;;
72087;SDS011;59961;50.232;8.616;2023-07-29T02:22:43;13.30;;;7.70;;
72087;SDS011;59961;50.232;8.616;2023-07-29T02:25:09;13.55;;;7.47;;
72087;SDS011;59961;50.232;8.616;2023-07-29T02:27:35;13.60;;;8.50;;
72087;SDS011;59961;50.232;8.616;2023-07-29T02:30:00;15.85;;;8.85;;
72087;SDS011;59961;50.232;8.616;2023-07-29T02:32:25;13.17;;;8.10;;
72087;SDS011;59961;50.232;8.616;2023-07-29T02:34:50;17.17;;;8.83;;
72087;SDS011;59961;50.232;8.616;2023-07-29T02:37:15;13.25;;;8.30;;
72087;SDS011;59961;50.232;8.616;2023-07-29T02:39:41;12.50;;;8.77;;
72087;SDS011;59961;50.232;8.616;2023-07-29T02:42:06;15.05;;;9.48;;
72087;SDS011;59961;50.232;8.616;2023-07-29T02:44:31;14.73;;;9.63;;
72087;SDS011;59961;50.232;8.616;2023-07-29T02:46:57;16.33;;;10.10;;
72087;SDS011;59961;50.232;8.616;2023-07-29T02:49:22;18.27;;;10.23;;
72087;SDS011;59961;50.232;8.616;2023-07-29T02:51:48;13.32;;;9.38;;
72087;SDS011;59961;50.232;8.616;2023-07-29T02:54:13;13.47;;;9.17;;
72087;SDS011;59961;50.232;8.616;2023-07-29T02:56:38;12.98;;;8.45;;
72087;SDS011;59961;50.232;8.616;2023-07-29T02:59:03;15.30;;;8.70;;
72087;SDS011;59961;50.232;8.616;2023-07-29T03:01:28;14.50;;;9.40;;
72087;SDS011;59961;50.232;8.616;2023-07-29T03:03:54;14.10;;;7.77;;
72087;SDS011;59961;50.232;8.616;2023-07-29T03:06:19;14.17;;;8.80;;
72087;SDS011;59961;50.232;8.616;2023-07-29T03:08:44;14.45;;;8.07;;
72087;SDS011;59961;50.232;8.616;2023-07-29T03:11:10;14.30;;;8.73;;
72087;SDS011;59961;50.232;8.616;2023-07-29T03:13:35;11.25;;;6.82;;
72087;SDS011;59961;50.232;8.616;2023-07-29T03:16:19;12.17;;;7.00;;
72087;SDS011;59961;50.232;8.616;2023-07-29T03:18:44;11.80;;;5.85;;
72087;SDS011;59961;50.232;8.616;2023-07-29T03:21:11;8.73;;;5.85;;
72087;SDS011;59961;50.232;8.616;2023-07-29T03:23:37;11.00;;;6.45;;
72087;SDS011;59961;50.232;8.616;2023-07-29T03:26:02;10.48;;;5.85;;
72087;SDS011;59961;50.232;8.616;2023-07-29T03:28:36;11.03;;;5.80;;
72087;SDS011;59961;50.232;8.616;2023-07-29T03:31:02;8.60;;;5.47;;
72087;SDS011;59961;50.232;8.616;2023-07-29T03:33:27;7.97;;;5.13;;
72087;SDS011;59961;50.232;8.616;2023-07-29T03:35:54;11.05;;;6.40;;
72087;SDS011;59961;50.232;8.616;2023-07-29T03:38:19;7.77;;;5.27;;
72087;SDS011;59961;50.232;8.616;2023-07-29T03:40:44;8.63;;;4.57;;
72087;SDS011;59961;50.232;8.616;2023-07-29T03:43:10;10.70;;;5.90;;
72087;SDS011;59961;50.232;8.616;2023-07-29T03:45:36;8.82;;;5.50;;
72087;SDS011;59961;50.232;8.616;2023-07-29T03:48:03;10.98;;;6.05;;
72087;SDS011;59961;50.232;8.616;2023-07-29T03:50:29;10.50;;;5.70;;
72087;SDS011;59961;50.232;8.616;2023-07-29T03:52:55;9.17;;;5.17;;
72087;SDS011;59961;50.232;8.616;2023-07-29T03:55:22;9.90;;;5.90;;
72087;SDS011;59961;50.232;8.616;2023-07-29T03:57:47;10.25;;;6.18;;
72087;SDS011;59961;50.232;8.616;2023-07-29T04:00:13;9.87;;;6.10;;
72087;SDS011;59961;50.232;8.616;2023-07-29T04:02:39;8.83;;;4.93;;
72087;SDS011;59961;50.232;8.616;2023-07-29T04:05:04;8.75;;;4.70;;
72087;SDS011;59961;50.232;8.616;2023-07-29T04:07:30;8.82;;;4.88;;
72087;SDS011;59961;50.232;8.616;2023-07-29T04:09:56;7.00;;;4.33;;
72087;SDS011;59961;50.232;8.616;2023-07-29T04:12:21;8.33;;;4.90;;
72087;SDS011;59961;50.232;8.616;2023-07-29T04:14:47;9.43;;;5.00;;
72087;SDS011;59961;50.232;8.616;2023-07-29T04:17:12;9.20;;;5.20;;
72087;SDS011;59961;50.232;8.616;2023-07-29T04:19:37;7.87;;;5.03;;
72087;SDS011;59961;50.232;8.616;2023-07-29T04:22:02;7.20;;;4.57;;
72087;SDS011;59961;50.232;8.616;2023-07-29T04:24:28;8.23;;;5.67;;
72087;SDS011;59961;50.232;8.616;2023-07-29T04:26:53;8.07;;;5.43;;
72087;SDS011;59961;50.232;8.616;2023-07-29T04:29:18;10.98;;;5.78;;
72087;SDS011;59961;50.232;8.616;2023-07-29T04:31:43;10.40;;;5.87;;
72087;SDS011;59961;50.232;8.616;2023-07-29T04:34:08;9.53;;;5.50;;
72087;SDS011;59961;50.232;8.616;2023-07-29T04:36:35;11.40;;;5.73;;
72087;SDS011;59961;50.232;8.616;2023-07-29T04:39:00;10.55;;;6.82;;
72087;SDS011;59961;50.232;8.616;2023-07-29T04:41:25;10.00;;;5.83;;
72087;SDS011;59961;50.232;8.616;2023-07-29T04:43:50;9.83;;;6.03;;
72087;SDS011;59961;50.232;8.616;2023-07-29T04:46:15;9.93;;;6.57;;
72087;SDS011;59961;50.232;8.616;2023-07-29T04:48:41;14.27;;;6.38;;
72087;SDS011;59961;50.232;8.616;2023-07-29T04:51:06;11.00;;;6.47;;
72087;SDS011;59961;50.232;8.616;2023-07-29T04:53:31;13.80;;;7.00;;
72087;SDS011;59961;50.232;8.616;2023-07-29T04:55:56;9.80;;;5.90;;
72087;SDS011;59961;50.232;8.616;2023-07-29T04:58:21;10.83;;;5.27;;
72087;SDS011;59961;50.232;8.616;2023-07-29T05:00:47;11.50;;;5.73;;
72087;SDS011;59961;50.232;8.616;2023-07-29T05:03:12;9.50;;;5.93;;
72087;SDS011;59961;50.232;8.616;2023-07-29T05:05:37;9.07;;;5.72;;
72087;SDS011;59961;50.232;8.616;2023-07-29T05:08:02;8.43;;;4.80;;
72087;SDS011;59961;50.232;8.616;2023-07-29T05:10:27;8.20;;;5.43;;
72087;SDS011;59961;50.232;8.616;2023-07-29T05:12:53;8.63;;;4.80;;
72087;SDS011;59961;50.232;8.616;2023-07-29T05:15:18;8.90;;;5.95;;
72087;SDS011;59961;50.232;8.616;2023-07-29T05:17:43;10.30;;;5.60;;
72087;SDS011;59961;50.232;8.616;2023-07-29T05:20:09;8.70;;;5.33;;
72087;SDS011;59961;50.232;8.616;2023-07-29T05:22:34;8.57;;;4.40;;
72087;SDS011;59961;50.232;8.616;2023-07-29T05:24:59;7.30;;;4.78;;
72087;SDS011;59961;50.232;8.616;2023-07-29T05:27:25;9.87;;;4.83;;
72087;SDS011;59961;50.232;8.616;2023-07-29T05:29:51;7.72;;;4.70;;
72087;SDS011;59961;50.232;8.616;2023-07-29T05:32:16;8.25;;;4.88;;
72087;SDS011;59961;50.232;8.616;2023-07-29T05:34:41;8.00;;;5.07;;
72087;SDS011;59961;50.232;8.616;2023-07-29T05:37:06;8.80;;;5.00;;
72087;SDS011;59961;50.232;8.616;2023-07-29T05:39:31;8.82;;;5.00;;
72087;SDS011;59961;50.232;8.616;2023-07-29T05:41:57;8.13;;;4.63;;
72087;SDS011;59961;50.232;8.616;2023-07-29T05:44:22;9.40;;;4.30;;
72087;SDS011;59961;50.232;8.616;2023-07-29T05:46:47;8.13;;;4.78;;
72087;SDS011;59961;50.232;8.616;2023-07-29T05:49:12;9.27;;;4.80;;
72087;SDS011;59961;50.232;8.616;2023-07-29T05:51:38;7.53;;;4.83;;
72087;SDS011;59961;50.232;8.616;2023-07-29T05:54:03;6.50;;;4.13;;
72087;SDS011;59961;50.232;8.616;2023-07-29T05:56:28;7.43;;;4.10;;
72087;SDS011;59961;50.232;8.616;2023-07-29T05:58:54;7.30;;;4.50;;
72087;SDS011;59961;50.232;8.616;2023-07-29T06:01:20;7.07;;;4.53;;
72087;SDS011;59961;50.232;8.616;2023-07-29T06:03:46;7.72;;;4.35;;
72087;SDS011;59961;50.232;8.616;2023-07-29T06:06:11;7.17;;;3.93;;
72087;SDS011;59961;50.232;8.616;2023-07-29T06:08:37;8.47;;;5.17;;
72087;SDS011;59961;50.232;8.616;2023-07-29T06:11:02;7.33;;;4.40;;
72087;SDS011;59961;50.232;8.616;2023-07-29T06:13:27;6.87;;;4.30;;
72087;SDS011;59961;50.232;8.616;2023-07-29T06:15:52;4.90;;;3.20;;
72087;SDS011;59961;50.232;8.616;2023-07-29T06:18:17;7.07;;;4.57;;
72087;SDS011;59961;50.232;8.616;2023-07-29T06:20:42;9.05;;;4.25;;
72087;SDS011;59961;50.232;8.616;2023-07-29T06:23:08;5.47;;;3.40;;
72087;SDS011;59961;50.232;8.616;2023-07-29T06:25:33;8.03;;;4.97;;
72087;SDS011;59961;50.232;8.616;2023-07-29T06:27:58;6.33;;;3.37;;
72087;SDS011;59961;50.232;8.616;2023-07-29T06:30:23;6.27;;;3.77;;
72087;SDS011;59961;50.232;8.616;2023-07-29T06:32:48;8.80;;;5.10;;
72087;SDS011;59961;50.232;8.616;2023-07-29T06:35:14;7.88;;;4.07;;
72087;SDS011;59961;50.232;8.616;2023-07-29T06:37:39;5.60;;;3.13;;
72087;SDS011;59961;50.232;8.616;2023-07-29T06:40:04;7.13;;;4.55;;
72087;SDS011;59961;50.232;8.616;2023-07-29T06:42:30;8.32;;;4.60;;
72087;SDS011;59961;50.232;8.616;2023-07-29T06:44:55;4.47;;;2.88;;
72087;SDS011;59961;50.232;8.616;2023-07-29T06:47:20;7.95;;;5.30;;
72087;SDS011;59961;50.232;8.616;2023-07-29T06:49:45;8.00;;;4.65;;
72087;SDS011;59961;50.232;8.616;2023-07-29T06:52:11;5.73;;;3.53;;
72087;SDS011;59961;50.232;8.616;2023-07-29T06:54:36;8.20;;;4.38;;
72087;SDS011;59961;50.232;8.616;2023-07-29T06:57:01;8.32;;;4.20;;
72087;SDS011;59961;50.232;8.616;2023-07-29T06:59:26;8.50;;;5.03;;
72087;SDS011;59961;50.232;8.616;2023-07-29T07:01:52;9.03;;;5.67;;
72087;SDS011;59961;50.232;8.616;2023-07-29T07:04:17;9.50;;;4.57;;
72087;SDS011;59961;50.232;8.616;2023-07-29T07:06:42;9.98;;;5.70;;
72087;SDS011;59961;50.232;8.616;2023-07-29T07:09:07;9.25;;;5.85;;
72087;SDS011;59961;50.232;8.616;2023-07-29T07:11:32;9.07;;;5.63;;
72087;SDS011;59961;50.232;8.616;2023-07-29T07:13:57;7.80;;;4.80;;
72087;SDS011;59961;50.232;8.616;2023-07-29T07:16:22;8.63;;;5.13;;
72087;SDS011;59961;50.232;8.616;2023-07-29T07:18:47;7.65;;;4.45;;
72087;SDS011;59961;50.232;8.616;2023-07-29T07:21:13;7.87;;;4.40;;
72087;SDS011;59961;50.232;8.616;2023-07-29T07:23:38;8.80;;;4.53;;
72087;SDS011;59961;50.232;8.616;2023-07-29T07:26:04;7.32;;;4.10;;
72087;SDS011;59961;50.232;8.616;2023-07-29T07:28:29;6.43;;;3.90;;
72087;SDS011;59961;50.232;8.616;2023-07-29T07:30:54;7.83;;;4.40;;
72087;SDS011;59961;50.232;8.616;2023-07-29T07:33:20;6.47;;;3.75;;
72087;SDS011;59961;50.232;8.616;2023-07-29T07:35:45;7.00;;;3.80;;
72087;SDS011;59961;50.232;8.616;2023-07-29T07:38:11;4.68;;;2.92;;
72087;SDS011;59961;50.232;8.616;2023-07-29T07:40:36;4.40;;;2.83;;
72087;SDS011;59961;50.232;8.616;2023-07-29T07:43:01;6.20;;;2.87;;
72087;SDS011;59961;50.232;8.616;2023-07-29T07:45:26;4.40;;;2.27;;
72087;SDS011;59961;50.232;8.616;2023-07-29T07:47:54;7.00;;;2.47;;
72087;SDS011;59961;50.232;8.616;2023-07-29T07:50:19;4.33;;;2.60;;
72087;SDS011;59961;50.232;8.616;2023-07-29T07:52:45;4.20;;;2.35;;
72087;SDS011;59961;50.232;8.616;2023-07-29T07:55:10;5.13;;;2.80;;
72087;SDS011;59961;50.232;8.616;2023-07-29T07:57:35;6.07;;;2.63;;
72087;SDS011;59961;50.232;8.616;2023-07-29T08:00:00;4.20;;;2.50;;
72087;SDS011;59961;50.232;8.616;2023-07-29T08:02:25;4.40;;;3.00;;
72087;SDS011;59961;50.232;8.616;2023-07-29T08:04:51;4.70;;;2.67;;
72087;SDS011;59961;50.232;8.616;2023-07-29T08:07:16;4.40;;;2.50;;
72087;SDS011;59961;50.232;8.616;2023-07-29T08:09:41;4.90;;;2.40;;
72087;SDS011;59961;50.232;8.616;2023-07-29T08:12:06;4.60;;;2.63;;
72087;SDS011;59961;50.232;8.616;2023-07-29T08:14:31;3.23;;;2.30;;
72087;SDS011;59961;50.232;8.616;2023-07-29T08:16:56;4.43;;;2.10;;
72087;SDS011;59961;50.232;8.616;2023-07-29T08:19:22;3.33;;;2.40;;
72087;SDS011;59961;50.232;8.616;2023-07-29T08:21:47;5.70;;;2.60;;
72087;SDS011;59961;50.232;8.616;2023-07-29T08:24:12;6.03;;;2.87;;
72087;SDS011;59961;50.232;8.616;2023-07-29T08:26:37;6.10;;;2.50;;
72087;SDS011;59961;50.232;8.616;2023-07-29T08:29:02;6.97;;;2.67;;
72087;SDS011;59961;50.232;8.616;2023-07-29T08:31:28;3.75;;;2.10;;
72087;SDS011;59961;50.232;8.616;2023-07-29T08:33:53;5.05;;;2.70;;
72087;SDS011;59961;50.232;8.616;2023-07-29T08:36:18;5.00;;;2.40;;
72087;SDS011;59961;50.232;8.616;2023-07-29T08:38:43;3.53;;;2.47;;
72087;SDS011;59961;50.232;8.616;2023-07-29T08:41:16;4.40;;;2.38;;
72087;SDS011;59961;50.232;8.616;2023-07-29T08:43:50;3.80;;;2.30;;
72087;SDS011;59961;50.232;8.616;2023-07-29T08:46:18;4.05;;;2.90;;
72087;SDS011;59961;50.232;8.616;2023-07-29T08:48:43;3.85;;;2.30;;
72087;SDS011;59961;50.232;8.616;2023-07-29T08:51:09;3.67;;;2.25;;
72087;SDS011;59961;50.232;8.616;2023-07-29T08:53:35;4.25;;;2.40;;
72087;SDS011;59961;50.232;8.616;2023-07-29T08:56:00;3.27;;;2.20;;
72087;SDS011;59961;50.232;8.616;2023-07-29T08:58:25;3.67;;;2.00;;
72087;SDS011;59961;50.232;8.616;2023-07-29T09:00:51;4.83;;;2.03;;
72087;SDS011;59961;50.232;8.616;2023-07-29T09:03:16;6.93;;;2.60;;
72087;SDS011;59961;50.232;8.616;2023-07-29T09:05:41;3.80;;;2.17;;
72087;SDS011;59961;50.232;8.616;2023-07-29T09:08:07;2.87;;;1.70;;
72087;SDS011;59961;50.232;8.616;2023-07-29T09:10:35;4.73;;;2.03;;
72087;SDS011;59961;50.232;8.616;2023-07-29T09:13:00;3.30;;;2.00;;
72087;SDS011;59961;50.232;8.616;2023-07-29T09:15:31;5.03;;;2.00;;
72087;SDS011;59961;50.232;8.616;2023-07-29T09:17:57;2.97;;;2.00;;
72087;SDS011;59961;50.232;8.616;2023-07-29T09:20:23;3.42;;;2.03;;
72087;SDS011;59961;50.232;8.616;2023-07-29T09:22:49;3.83;;;1.90;;
72087;SDS011;59961;50.232;8.616;2023-07-29T09:25:14;2.55;;;1.60;;
72087;SDS011;59961;50.232;8.616;2023-07-29T09:27:41;3.23;;;1.90;;
72087;SDS011;59961;50.232;8.616;2023-07-29T09:30:06;3.63;;;1.70;;
72087;SDS011;59961;50.232;8.616;2023-07-29T09:32:32;2.80;;;1.60;;
72087;SDS011;59961;50.232;8.616;2023-07-29T09:34:57;3.33;;;1.63;;
72087;SDS011;59961;50.232;8.616;2023-07-29T09:37:23;2.47;;;1.47;;
72087;SDS011;59961;50.232;8.616;2023-07-29T09:39:48;2.95;;;1.50;;
72087;SDS011;59961;50.232;8.616;2023-07-29T09:42:20;3.57;;;1.50;;
72087;SDS011;59961;50.232;8.616;2023-07-29T09:44:45;2.75;;;1.35;;
72087;SDS011;59961;50.232;8.616;2023-07-29T09:47:24;2.60;;;1.50;;
72087;SDS011;59961;50.232;8.616;2023-07-29T09:49:50;3.33;;;1.50;;
72087;SDS011;59961;50.232;8.616;2023-07-29T09:52:24;2.30;;;1.60;;
72087;SDS011;59961;50.232;8.616;2023-07-29T09:54:49;2.60;;;1.52;;
72087;SDS011;59961;50.232;8.616;2023-07-29T09:57:16;2.38;;;1.38;;
72087;SDS011;59961;50.232;8.616;2023-07-29T09:59:41;2.33;;;1.63;;
72087;SDS011;59961;50.232;8.616;2023-07-29T10:02:13;2.73;;;1.80;;
72087;SDS011;59961;50.232;8.616;2023-07-29T10:04:38;3.37;;;1.90;;
72087;SDS011;59961;50.232;8.616;2023-07-29T10:07:03;3.80;;;1.77;;
72087;SDS011;59961;50.232;8.616;2023-07-29T10:09:28;4.33;;;1.63;;
72087;SDS011;59961;50.232;8.616;2023-07-29T10:11:54;2.47;;;1.40;;
72087;SDS011;59961;50.232;8.616;2023-07-29T10:14:20;3.60;;;1.70;;
72087;SDS011;59961;50.232;8.616;2023-07-29T10:16:46;3.22;;;1.55;;
72087;SDS011;59961;50.232;8.616;2023-07-29T10:19:11;3.42;;;1.52;;
72087;SDS011;59961;50.232;8.616;2023-07-29T10:21:39;2.60;;;1.33;;
72087;SDS011;59961;50.232;8.616;2023-07-29T10:24:05;1.83;;;1.30;;
72087;SDS011;59961;50.232;8.616;2023-07-29T10:26:33;3.70;;;1.30;;
72087;SDS011;59961;50.232;8.616;2023-07-29T10:28:59;2.95;;;1.40;;
72087;SDS011;59961;50.232;8.616;2023-07-29T10:31:29;2.72;;;1.20;;
72087;SDS011;59961;50.232;8.616;2023-07-29T10:33:55;1.53;;;1.20;;
72087;SDS011;59961;50.232;8.616;2023-07-29T10:36:20;2.90;;;1.40;;
72087;SDS011;59961;50.232;8.616;2023-07-29T10:38:45;3.20;;;1.20;;
72087;SDS011;59961;50.232;8.616;2023-07-29T10:41:10;2.30;;;1.33;;
72087;SDS011;59961;50.232;8.616;2023-07-29T10:43:37;2.42;;;1.40;;
72087;SDS011;59961;50.232;8.616;2023-07-29T10:46:20;3.40;;;1.60;;
72087;SDS011;59961;50.232;8.616;2023-07-29T10:48:53;2.25;;;1.30;;
72087;SDS011;59961;50.232;8.616;2023-07-29T10:51:25;2.47;;;1.13;;
72087;SDS011;59961;50.232;8.616;2023-07-29T10:54:01;1.87;;;1.20;;
72087;SDS011;59961;50.232;8.616;2023-07-29T10:56:27;2.85;;;1.13;;
72087;SDS011;59961;50.232;8.616;2023-07-29T10:58:54;2.47;;;1.17;;
72087;SDS011;59961;50.232;8.616;2023-07-29T11:01:31;3.90;;;1.50;;
72087;SDS011;59961;50.232;8.616;2023-07-29T11:14:54;3.10;;;1.42;;
72087;SDS011;59961;50.232;8.616;2023-07-29T11:17:19;2.97;;;1.40;;
72087;SDS011;59961;50.232;8.616;2023-07-29T11:19:44;3.40;;;1.03;;
72087;SDS011;59961;50.232;8.616;2023-07-29T11:22:09;2.57;;;0.90;;
72087;SDS011;59961;50.232;8.616;2023-07-29T11:24:35;2.85;;;1.00;;
72087;SDS011;59961;50.232;8.616;2023-07-29T11:27:00;2.58;;;1.20;;
72087;SDS011;59961;50.232;8.616;2023-07-29T11:29:25;1.88;;;0.95;;
72087;SDS011;59961;50.232;8.616;2023-07-29T11:31:50;2.47;;;1.30;;
72087;SDS011;59961;50.232;8.616;2023-07-29T11:34:16;2.30;;;1.27;;
72087;SDS011;59961;50.232;8.616;2023-07-29T11:36:45;2.75;;;1.40;;
72087;SDS011;59961;50.232;8.616;2023-07-29T11:39:10;2.37;;;1.00;;
72087;SDS011;59961;50.232;8.616;2023-07-29T11:41:36;1.70;;;1.08;;
72087;SDS011;59961;50.232;8.616;2023-07-29T11:44:01;3.47;;;1.20;;
72087;SDS011;59961;50.232;8.616;2023-07-29T11:46:27;2.10;;;1.17;;
72087;SDS011;59961;50.232;8.616;2023-07-29T11:48:53;3.20;;;1.10;;
72087;SDS011;59961;50.232;8.616;2023-07-29T11:51:19;2.30;;;1.10;;
72087;SDS011;59961;50.232;8.616;2023-07-29T11:53:44;2.00;;;0.90;;
72087;SDS011;59961;50.232;8.616;2023-07-29T11:56:09;2.43;;;1.10;;
72087;SDS011;59961;50.232;8.616;2023-07-29T11:58:35;1.85;;;1.20;;
72087;SDS011;59961;50.232;8.616;2023-07-29T12:01:03;2.55;;;1.05;;
72087;SDS011;59961;50.232;8.616;2023-07-29T12:03:28;1.70;;;1.10;;
72087;SDS011;59961;50.232;8.616;2023-07-29T12:05:53;1.40;;;0.90;;
72087;SDS011;59961;50.232;8.616;2023-07-29T12:08:19;2.10;;;1.13;;
72087;SDS011;59961;50.232;8.616;2023-07-29T12:10:44;2.90;;;1.50;;
72087;SDS011;59961;50.232;8.616;2023-07-29T12:13:09;2.77;;;1.10;;
72087;SDS011;59961;50.232;8.616;2023-07-29T12:15:34;2.20;;;1.17;;
72087;SDS011;59961;50.232;8.616;2023-07-29T12:17:59;2.00;;;1.17;;
72087;SDS011;59961;50.232;8.616;2023-07-29T12:20:25;2.10;;;1.00;;
72087;SDS011;59961;50.232;8.616;2023-07-29T12:22:51;2.90;;;1.00;;
72087;SDS011;59961;50.232;8.616;2023-07-29T12:25:17;2.38;;;1.20;;
72087;SDS011;59961;50.232;8.616;2023-07-29T12:27:43;2.47;;;1.40;;
72087;SDS011;59961;50.232;8.616;2023-07-29T12:30:08;2.07;;;1.07;;
72087;SDS011;59961;50.232;8.616;2023-07-29T12:32:42;2.50;;;1.10;;
72087;SDS011;59961;50.232;8.616;2023-07-29T12:35:09;4.57;;;1.00;;
72087;SDS011;59961;50.232;8.616;2023-07-29T12:37:34;3.00;;;1.20;;
72087;SDS011;59961;50.232;8.616;2023-07-29T12:39:59;1.75;;;0.93;;
72087;SDS011;59961;50.232;8.616;2023-07-29T12:42:24;2.30;;;1.00;;
72087;SDS011;59961;50.232;8.616;2023-07-29T12:44:50;1.83;;;1.10;;
72087;SDS011;59961;50.232;8.616;2023-07-29T12:47:15;3.15;;;1.15;;
72087;SDS011;59961;50.232;8.616;2023-07-29T12:49:40;3.95;;;1.00;;
72087;SDS011;59961;50.232;8.616;2023-07-29T12:52:05;1.55;;;0.80;;
72087;SDS011;59961;50.232;8.616;2023-07-29T12:54:30;3.13;;;1.00;;
72087;SDS011;59961;50.232;8.616;2023-07-29T12:56:57;2.40;;;1.13;;
72087;SDS011;59961;50.232;8.616;2023-07-29T12:59:22;3.35;;;1.10;;
72087;SDS011;59961;50.232;8.616;2023-07-29T13:01:47;1.80;;;1.10;;
72087;SDS011;59961;50.232;8.616;2023-07-29T13:04:13;1.90;;;1.10;;
72087;SDS011;59961;50.232;8.616;2023-07-29T13:06:38;4.33;;;1.37;;
72087;SDS011;59961;50.232;8.616;2023-07-29T13:09:03;2.10;;;1.13;;
72087;SDS011;59961;50.232;8.616;2023-07-29T13:11:30;3.10;;;1.25;;
72087;SDS011;59961;50.232;8.616;2023-07-29T13:13:57;2.13;;;1.33;;
72087;SDS011;59961;50.232;8.616;2023-07-29T13:16:22;3.22;;;1.02;;
72087;SDS011;59961;50.232;8.616;2023-07-29T13:18:47;2.63;;;1.47;;
72087;SDS011;59961;50.232;8.616;2023-07-29T13:21:12;4.23;;;1.27;;
72087;SDS011;59961;50.232;8.616;2023-07-29T13:23:37;2.23;;;1.13;;
72087;SDS011;59961;50.232;8.616;2023-07-29T13:26:03;1.93;;;1.20;;
72087;SDS011;59961;50.232;8.616;2023-07-29T13:28:28;3.03;;;1.00;;
72087;SDS011;59961;50.232;8.616;2023-07-29T13:30:55;2.63;;;1.30;;
72087;SDS011;59961;50.232;8.616;2023-07-29T13:33:20;1.73;;;1.03;;
72087;SDS011;59961;50.232;8.616;2023-07-29T13:35:46;2.03;;;1.10;;
72087;SDS011;59961;50.232;8.616;2023-07-29T13:38:12;2.20;;;1.10;;
72087;SDS011;59961;50.232;8.616;2023-07-29T13:40:38;2.37;;;1.00;;
72087;SDS011;59961;50.232;8.616;2023-07-29T13:43:03;2.63;;;1.00;;
72087;SDS011;59961;50.232;8.616;2023-07-29T13:45:29;3.28;;;1.25;;
72087;SDS011;59961;50.232;8.616;2023-07-29T13:47:54;2.57;;;1.10;;
72087;SDS011;59961;50.232;8.616;2023-07-29T13:50:19;2.67;;;1.07;;
72087;SDS011;59961;50.232;8.616;2023-07-29T13:52:44;2.67;;;0.87;;
72087;SDS011;59961;50.232;8.616;2023-07-29T13:55:09;1.85;;;1.00;;
72087;SDS011;59961;50.232;8.616;2023-07-29T13:57:36;1.85;;;1.08;;
72087;SDS011;59961;50.232;8.616;2023-07-29T14:00:01;2.63;;;1.23;;
72087;SDS011;59961;50.232;8.616;2023-07-29T14:02:27;4.22;;;1.10;;
72087;SDS011;59961;50.232;8.616;2023-07-29T14:04:52;1.87;;;0.80;;
72087;SDS011;59961;50.232;8.616;2023-07-29T14:07:17;2.20;;;0.90;;
72087;SDS011;59961;50.232;8.616;2023-07-29T14:09:42;2.35;;;1.30;;
72087;SDS011;59961;50.232;8.616;2023-07-29T14:12:08;2.42;;;1.17;;
72087;SDS011;59961;50.232;8.616;2023-07-29T14:14:37;2.25;;;1.10;;
72087;SDS011;59961;50.232;8.616;2023-07-29T14:17:02;2.33;;;1.15;;
72087;SDS011;59961;50.232;8.616;2023-07-29T14:19:27;2.63;;;1.20;;
72087;SDS011;59961;50.232;8.616;2023-07-29T14:21:52;2.72;;;1.33;;
72087;SDS011;59961;50.232;8.616;2023-07-29T14:24:17;2.30;;;1.07;;
72087;SDS011;59961;50.232;8.616;2023-07-29T14:26:43;2.00;;;1.10;;
72087;SDS011;59961;50.232;8.616;2023-07-29T14:29:08;1.97;;;0.97;;
72087;SDS011;59961;50.232;8.616;2023-07-29T14:31:34;1.70;;;1.00;;
72087;SDS011;59961;50.232;8.616;2023-07-29T14:33:59;2.30;;;1.10;;
72087;SDS011;59961;50.232;8.616;2023-07-29T14:36:24;3.17;;;1.40;;
72087;SDS011;59961;50.232;8.616;2023-07-29T14:38:49;3.80;;;1.10;;
72087;SDS011;59961;50.232;8.616;2023-07-29T14:41:15;6.27;;;1.23;;
72087;SDS011;59961;50.232;8.616;2023-07-29T14:43:40;3.23;;;1.50;;
72087;SDS011;59961;50.232;8.616;2023-07-29T14:46:05;2.65;;;1.27;;
72087;SDS011;59961;50.232;8.616;2023-07-29T14:48:31;1.37;;;0.90;;
72087;SDS011;59961;50.232;8.616;2023-07-29T14:50:56;4.30;;;1.40;;
72087;SDS011;59961;50.232;8.616;2023-07-29T14:53:21;3.77;;;1.20;;
72087;SDS011;59961;50.232;8.616;2023-07-29T14:55:47;2.60;;;1.37;;